createdAt,value
2022-09-09T00:03:01.231Z,99496.75
2022-09-09T00:06:00.846Z,99481.34
2022-09-09T00:08:59.252Z,99481.13
2022-09-09T00:11:53.445Z,99474.66
2022-09-09T00:14:56.076Z,99484.00
2022-09-09T00:17:49.771Z,99501.88
2022-09-09T00:20:55.017Z,99506.78
2022-09-09T00:23:45.905Z,99503.03
2022-09-09T00:26:38.773Z,99492.94
2022-09-09T00:29:28.264Z,99491.94
2022-09-09T00:32:19.611Z,99498.41
2022-09-09T00:35:18.944Z,99495.78
2022-09-09T00:38:18.049Z,99489.94
2022-09-09T00:41:12.285Z,99499.84
2022-09-09T00:44:03.369Z,99497.25
2022-09-09T00:47:24.008Z,99501.12
2022-09-09T00:50:36.508Z,99492.75
2022-09-09T00:53:22.689Z,99490.63
2022-09-09T00:56:20.223Z,99502.44
2022-09-09T00:59:13.564Z,99501.84
2022-09-09T01:02:00.047Z,99508.63
2022-09-09T01:04:46.721Z,99497.97
2022-09-09T01:07:33.422Z,99508.59
2022-09-09T01:10:37.111Z,99511.16
2022-09-09T01:13:31.465Z,99520.37
2022-09-09T01:16:18.702Z,99526.00
2022-09-09T01:19:08.455Z,99525.91
2022-09-09T01:22:19.938Z,99524.03
2022-09-09T01:25:19.936Z,99524.72
2022-09-09T01:28:11.589Z,99540.56
2022-09-09T01:30:58.711Z,99527.69
2022-09-09T01:33:45.634Z,99529.97
2022-09-09T01:36:58.088Z,99526.59
2022-09-09T01:39:45.930Z,99537.47
2022-09-09T01:42:33.139Z,99538.88
2022-09-09T01:45:19.809Z,99544.81
2022-09-09T01:48:05.921Z,99549.94
2022-09-09T01:50:52.445Z,99557.81
2022-09-09T01:53:40.718Z,99557.72
2022-09-09T01:56:27.589Z,99547.16
2022-09-09T01:59:26.117Z,99549.78
2022-09-09T02:02:19.138Z,99540.12
2022-09-09T02:05:41.173Z,99536.87
2022-09-09T02:08:44.298Z,99543.53
2022-09-09T02:11:32.145Z,99539.19
2022-09-09T02:14:24.504Z,99544.41
2022-09-09T02:17:12.289Z,99539.22
2022-09-09T02:20:05.435Z,99543.53
2022-09-09T02:22:54.442Z,99541.06
2022-09-09T02:25:42.903Z,99539.22
2022-09-09T02:28:32.951Z,99535.66
2022-09-09T02:31:21.470Z,99528.97
2022-09-09T02:34:11.863Z,99526.44
2022-09-09T02:36:58.509Z,99526.94
2022-09-09T02:39:45.514Z,99521.75
2022-09-09T02:42:32.134Z,99523.13
2022-09-09T02:45:20.726Z,99523.72
2022-09-09T02:48:24.213Z,99524.47
2022-09-09T02:51:25.060Z,99528.19
2022-09-09T02:54:32.915Z,99536.41
2022-09-09T02:57:25.223Z,99534.63
2022-09-09T03:00:12.517Z,99537.88
2022-09-09T03:02:58.748Z,99538.44
2022-09-09T03:05:45.680Z,99540.03
2022-09-09T03:08:32.333Z,99545.56
2022-09-09T03:11:18.655Z,99539.69
2022-09-09T03:14:05.632Z,99545.72
2022-09-09T03:16:52.987Z,99547.47
2022-09-09T03:19:39.264Z,99547.41
2022-09-09T03:22:26.443Z,99554.66
2022-09-09T03:25:14.238Z,99553.75
2022-09-09T03:28:00.523Z,99556.19
2022-09-09T03:30:46.891Z,99550.09
2022-09-09T03:33:33.712Z,99554.91
2022-09-09T03:36:20.655Z,99547.59
2022-09-09T03:39:07.123Z,99555.72
2022-09-09T03:41:53.543Z,99551.44
2022-09-09T03:44:40.915Z,99556.03
2022-09-09T03:47:27.337Z,99559.66
2022-09-09T03:50:14.263Z,99559.84
2022-09-09T03:53:00.937Z,99559.06
2022-09-09T03:55:53.702Z,99567.31
2022-09-09T03:58:40.427Z,99559.03
2022-09-09T04:01:27.093Z,99566.94
2022-09-09T04:04:13.514Z,99572.75
2022-09-09T04:07:00.243Z,99579.31
2022-09-09T04:09:46.939Z,99572.56
2022-09-09T04:12:33.633Z,99565.34
2022-09-09T04:15:20.166Z,99564.97
2022-09-09T04:18:07.157Z,99563.59
2022-09-09T04:20:54.180Z,99579.75
2022-09-09T04:23:40.952Z,99565.66
2022-09-09T04:26:27.378Z,99565.66
2022-09-09T04:29:13.505Z,99557.97
2022-09-09T04:32:00.049Z,99561.56
2022-09-09T04:34:46.840Z,99569.38
2022-09-09T04:37:34.208Z,99565.03
2022-09-09T04:40:20.500Z,99556.03
2022-09-09T04:43:06.909Z,99552.69
2022-09-09T04:45:53.477Z,99543.37
2022-09-09T04:48:41.092Z,99550.69
2022-09-09T04:51:27.772Z,99556.75
2022-09-09T04:54:14.204Z,99552.19
2022-09-09T04:57:00.518Z,99559.22
2022-09-09T04:59:47.420Z,99552.69
2022-09-09T05:02:34.398Z,99555.25
2022-09-09T05:05:21.418Z,99557.25
2022-09-09T05:08:09.554Z,99572.69
2022-09-09T05:10:56.361Z,99567.25
2022-09-09T05:13:42.364Z,99567.78
2022-09-09T05:16:28.723Z,99571.22
2022-09-09T05:19:15.337Z,99579.06
2022-09-09T05:22:02.311Z,99569.53
2022-09-09T05:24:51.845Z,99569.06
2022-09-09T05:27:38.667Z,99571.09
2022-09-09T05:30:25.752Z,99571.88
2022-09-09T05:33:12.564Z,99580.94
2022-09-09T05:36:03.791Z,99589.22
2022-09-09T05:38:51.212Z,99595.63
2022-09-09T05:41:37.292Z,99584.09
2022-09-09T05:44:26.046Z,99592.16
2022-09-09T05:47:13.061Z,99584.25
2022-09-09T05:49:59.276Z,99583.69
2022-09-09T05:52:45.610Z,99594.53
2022-09-09T05:55:32.554Z,99586.12
2022-09-09T05:58:19.236Z,99586.28
2022-09-09T06:01:13.110Z,99591.91
2022-09-09T06:04:00.862Z,99590.81
2022-09-09T06:06:47.410Z,99583.06
2022-09-09T06:09:35.227Z,99588.63
2022-09-09T06:12:21.910Z,99587.84
2022-09-09T06:15:10.066Z,99586.12
2022-09-09T06:17:56.736Z,99579.50
2022-09-09T06:20:43.449Z,99583.06
2022-09-09T06:23:29.778Z,99579.69
2022-09-09T06:26:20.076Z,99590.16
2022-09-09T06:29:07.614Z,99590.59
2022-09-09T06:31:54.673Z,99592.41
2022-09-09T06:34:41.041Z,99588.03
2022-09-09T06:37:27.897Z,99596.13
2022-09-09T06:40:14.021Z,99589.31
2022-09-09T06:43:02.033Z,99594.88
2022-09-09T06:46:01.028Z,99590.37
2022-09-09T06:48:47.641Z,99593.41
2022-09-09T06:51:36.526Z,99596.72
2022-09-09T06:54:24.791Z,99596.84
2022-09-09T06:57:36.783Z,99600.47
2022-09-09T07:00:19.281Z,99601.62
2022-09-09T07:03:07.117Z,99606.00
2022-09-09T07:05:57.286Z,99609.84
2022-09-09T07:08:51.770Z,99604.91
2022-09-09T07:11:45.464Z,99615.88
2022-09-09T07:14:32.188Z,99615.44
2022-09-09T07:17:18.664Z,99606.34
2022-09-09T07:20:05.539Z,99601.00
2022-09-09T07:22:55.922Z,99608.31
2022-09-09T07:25:46.556Z,99612.16
2022-09-09T07:28:33.229Z,99611.81
2022-09-09T07:31:22.126Z,99620.87
2022-09-09T07:34:08.799Z,99617.34
2022-09-09T07:36:55.270Z,99614.81
2022-09-09T07:39:43.093Z,99627.25
2022-09-09T07:42:29.610Z,99628.53
2022-09-09T07:45:15.916Z,99628.09
2022-09-09T07:48:02.917Z,99633.50
2022-09-09T07:50:49.731Z,99621.25
2022-09-09T07:53:37.423Z,99623.16
2022-09-09T07:56:24.261Z,99629.75
2022-09-09T07:59:11.351Z,99625.03
2022-09-09T08:01:59.501Z,99631.00
2022-09-09T08:04:47.373Z,99626.47
2022-09-09T08:07:33.864Z,99628.28
2022-09-09T08:10:20.368Z,99622.88
2022-09-09T08:13:17.805Z,99616.38
2022-09-09T08:16:10.375Z,99631.12
2022-09-09T08:18:57.785Z,99626.59
2022-09-09T08:21:45.606Z,99626.00
2022-09-09T08:24:31.865Z,99611.38
2022-09-09T08:27:18.336Z,99614.66
2022-09-09T08:30:04.847Z,99617.53
2022-09-09T08:32:53.876Z,99626.59
2022-09-09T08:35:40.801Z,99624.53
2022-09-09T08:38:27.219Z,99627.56
2022-09-09T08:41:31.015Z,99626.06
2022-09-09T08:44:37.120Z,99621.66
2022-09-09T08:47:35.783Z,99624.50
2022-09-09T08:50:25.708Z,99624.91
2022-09-09T08:53:21.159Z,99635.37
2022-09-09T08:56:17.366Z,99622.06
2022-09-09T08:59:04.342Z,99618.97
2022-09-09T09:02:04.744Z,99624.34
2022-09-09T09:05:07.126Z,99622.09
2022-09-09T09:08:21.121Z,99629.56
2022-09-09T09:11:08.007Z,99618.09
2022-09-09T09:13:59.972Z,99614.34
2022-09-09T09:16:55.697Z,99624.50
2022-09-09T09:19:44.252Z,99621.50
2022-09-09T09:22:48.589Z,99606.84
2022-09-09T09:25:40.837Z,99603.31
2022-09-09T09:28:31.297Z,99605.59
2022-09-09T09:31:19.391Z,99606.41
2022-09-09T09:34:05.943Z,99590.97
2022-09-09T09:36:57.856Z,99588.13
2022-09-09T09:42:59.572Z,99588.53
2022-09-09T09:45:55.324Z,99601.34
2022-09-09T09:49:06.725Z,99610.53
2022-09-09T09:51:53.594Z,99604.94
2022-09-09T09:54:43.080Z,99606.53
2022-09-09T09:57:32.976Z,99612.47
2022-09-09T10:00:22.221Z,99600.53
2022-09-09T10:03:23.325Z,99600.91
2022-09-09T10:06:10.603Z,99593.62
2022-09-09T10:08:56.872Z,99592.75
2022-09-09T10:11:47.469Z,99589.41
2022-09-09T10:14:59.957Z,99597.81
2022-09-09T10:17:48.862Z,99594.53
2022-09-09T10:20:41.741Z,99582.06
2022-09-09T10:23:46.039Z,99588.84
2022-09-09T10:26:50.975Z,99588.34
2022-09-09T10:30:05.483Z,99589.78
2022-09-09T10:36:21.126Z,99585.91
2022-09-09T10:39:27.551Z,99590.19
2022-09-09T10:42:14.428Z,99580.19
2022-09-09T10:45:23.310Z,99585.56
2022-09-09T10:48:28.861Z,99586.44
2022-09-09T10:51:30.512Z,99588.06
2022-09-09T10:54:31.181Z,99582.00
2022-09-09T10:57:23.403Z,99591.41
2022-09-09T11:00:28.498Z,99576.25
2022-09-09T11:03:23.103Z,99574.87
2022-09-09T11:06:20.870Z,99577.38
2022-09-09T11:09:08.112Z,99571.09
2022-09-09T11:11:58.487Z,99568.16
2022-09-09T11:14:49.441Z,99555.94
2022-09-09T11:17:43.840Z,99567.41
2022-09-09T11:20:30.148Z,99554.72
2022-09-09T11:23:25.135Z,99557.38
2022-09-09T11:26:18.228Z,99562.91
2022-09-09T11:29:11.400Z,99566.56
2022-09-09T11:31:57.891Z,99574.19
2022-09-09T11:35:07.044Z,99571.38
2022-09-09T11:38:24.399Z,99574.41
2022-09-09T11:41:11.172Z,99580.59
2022-09-09T11:43:57.487Z,99567.31
2022-09-09T11:46:53.109Z,99565.13
2022-09-09T11:49:39.194Z,99573.66
2022-09-09T11:52:37.961Z,99568.06
2022-09-09T11:55:28.542Z,99569.50
2022-09-09T11:58:19.868Z,99570.34
2022-09-09T12:01:17.679Z,99572.63
2022-09-09T12:04:07.107Z,99557.44
2022-09-09T12:06:59.702Z,99560.81
2022-09-09T12:10:21.961Z,99570.56
2022-09-09T12:13:27.841Z,99582.41
2022-09-09T12:16:39.596Z,99596.28
2022-09-09T12:19:27.085Z,99571.53
2022-09-09T12:22:35.837Z,99575.13
2022-09-09T12:25:59.743Z,99559.69
2022-09-09T12:29:24.343Z,99567.69
2022-09-09T12:32:12.940Z,99554.66
2022-09-09T12:35:29.030Z,99545.28
2022-09-09T12:38:20.416Z,99544.59
2022-09-09T12:41:07.061Z,99542.47
2022-09-09T12:44:04.871Z,99524.59
2022-09-09T12:46:52.413Z,99531.16
2022-09-09T12:49:40.304Z,99525.69
2022-09-09T12:52:31.609Z,99531.69
2022-09-09T12:55:22.637Z,99531.47
2022-09-09T12:58:14.509Z,99526.34
2022-09-09T13:01:05.776Z,99516.38
2022-09-09T13:03:53.624Z,99509.19
2022-09-09T13:06:39.885Z,99499.69
2022-09-09T13:09:27.341Z,99484.75
2022-09-09T13:12:19.848Z,99492.38
2022-09-09T13:15:21.438Z,99481.00
2022-09-09T13:18:12.583Z,99490.94
2022-09-09T13:20:59.349Z,99489.03
2022-09-09T13:23:50.625Z,99487.00
2022-09-09T13:26:37.292Z,99495.03
2022-09-09T13:29:23.259Z,99492.78
2022-09-09T13:32:19.195Z,99482.31
2022-09-09T13:35:07.577Z,99473.41
2022-09-09T13:37:54.585Z,99481.25
2022-09-09T13:40:40.604Z,99474.72
2022-09-09T13:43:27.700Z,99470.13
2022-09-09T13:46:41.319Z,99466.91
2022-09-09T13:49:29.882Z,99470.38
2022-09-09T13:52:19.801Z,99465.34
2022-09-09T13:55:07.777Z,99461.22
2022-09-09T13:58:02.209Z,99461.03
2022-09-09T14:00:49.504Z,99450.09
2022-09-09T14:03:36.033Z,99446.16
2022-09-09T14:06:22.912Z,99440.66
2022-09-09T14:09:12.704Z,99445.00
2022-09-09T14:11:58.724Z,99437.63
2022-09-09T14:14:45.322Z,99429.34
2022-09-09T14:17:32.201Z,99431.50
2022-09-09T14:20:18.739Z,99430.75
2022-09-09T14:23:04.847Z,99437.28
2022-09-09T14:25:52.110Z,99451.87
2022-09-09T14:28:54.216Z,99440.31
2022-09-09T14:31:41.692Z,99432.53
2022-09-09T14:34:28.157Z,99429.25
2022-09-09T14:37:14.381Z,99425.81
2022-09-09T14:40:00.323Z,99418.94
2022-09-09T14:42:46.565Z,99430.63
2022-09-09T14:45:33.237Z,99422.66
2022-09-09T14:48:25.865Z,99429.22
2022-09-09T14:51:14.710Z,99420.03
2022-09-09T14:54:01.054Z,99431.03
2022-09-09T14:56:48.223Z,99421.56
2022-09-09T14:59:35.457Z,99425.72
2022-09-09T15:02:21.725Z,99423.38
2022-09-09T15:05:08.374Z,99421.03
2022-09-09T15:07:54.542Z,99422.53
2022-09-09T15:10:40.965Z,99426.25
2022-09-09T15:13:27.137Z,99423.44
2022-09-09T15:16:19.117Z,99420.34
2022-09-09T15:19:05.616Z,99424.69
2022-09-09T15:21:52.498Z,99417.44
2022-09-09T15:24:38.938Z,99427.47
2022-09-09T15:27:25.304Z,99421.09
2022-09-09T15:30:12.238Z,99422.31
2022-09-09T15:32:58.473Z,99436.03
2022-09-09T15:35:44.813Z,99422.44
2022-09-09T15:38:32.486Z,99424.97
2022-09-09T15:41:20.829Z,99424.19
2022-09-09T15:44:07.239Z,99427.97
2022-09-09T15:46:56.577Z,99429.75
2022-09-09T15:49:43.368Z,99422.13
2022-09-09T15:52:30.094Z,99416.44
2022-09-09T15:55:16.562Z,99420.56
2022-09-09T15:58:02.986Z,99426.22
2022-09-09T16:00:49.314Z,99417.88
2022-09-09T16:03:45.645Z,99421.03
2022-09-09T16:06:31.830Z,99419.53
2022-09-09T16:09:18.491Z,99433.78
2022-09-09T16:12:08.900Z,99449.09
2022-09-09T16:14:55.871Z,99448.72
2022-09-09T16:17:41.934Z,99456.19
2022-09-09T16:20:28.505Z,99441.75
2022-09-09T16:23:15.027Z,99447.38
2022-09-09T16:26:05.682Z,99441.91
2022-09-09T16:28:52.203Z,99441.41
2022-09-09T16:31:39.098Z,99436.66
2022-09-09T16:34:26.263Z,99436.75
2022-09-09T16:37:12.652Z,99438.78
2022-09-09T16:39:58.634Z,99442.28
2022-09-09T16:42:44.823Z,99442.00
2022-09-09T16:45:31.155Z,99432.97
2022-09-09T16:48:17.536Z,99433.22
2022-09-09T16:51:08.264Z,99445.72
2022-09-09T16:53:55.596Z,99446.56
2022-09-09T16:56:43.374Z,99458.84
2022-09-09T16:59:29.590Z,99457.25
2022-09-09T17:02:15.949Z,99450.94
2022-09-09T17:05:02.219Z,99442.06
2022-09-09T17:07:48.457Z,99448.88
2022-09-09T17:10:34.688Z,99448.47
2022-09-09T17:13:21.123Z,99451.72
2022-09-09T17:16:07.616Z,99450.00
2022-09-09T17:18:55.421Z,99462.53
2022-09-09T17:22:00.451Z,99455.66
2022-09-09T17:24:48.974Z,99451.09
2022-09-09T17:27:35.411Z,99455.97
2022-09-09T17:30:21.128Z,99459.06
2022-09-09T17:33:07.898Z,99445.34
2022-09-09T17:35:53.920Z,99451.06
2022-09-09T17:38:41.654Z,99446.81
2022-09-09T17:41:38.804Z,99455.59
2022-09-09T17:44:25.311Z,99460.69
2022-09-09T17:47:11.729Z,99459.59
2022-09-09T17:49:58.627Z,99458.31
2022-09-09T17:52:45.701Z,99455.94
2022-09-09T17:55:33.815Z,99455.00
2022-09-09T17:58:19.887Z,99459.03
2022-09-09T18:13:54.350Z,99481.00
2022-09-09T18:16:41.114Z,99478.69
2022-09-09T18:19:30.718Z,99482.63
2022-09-09T18:22:19.845Z,99471.91
2022-09-09T18:25:06.436Z,99474.69
2022-09-09T18:27:54.785Z,99478.53
2022-09-09T18:30:41.890Z,99473.38
2022-09-09T18:33:29.521Z,99484.19
2022-09-09T18:36:20.913Z,99482.63
2022-09-09T18:39:08.751Z,99487.50
2022-09-09T18:42:00.397Z,99481.91
2022-09-09T18:44:46.915Z,99482.69
2022-09-09T18:47:33.279Z,99481.06
2022-09-09T18:50:19.473Z,99480.69
2022-09-09T18:53:06.206Z,99482.69
2022-09-09T18:55:59.275Z,99479.56
2022-09-09T18:58:48.597Z,99485.94
2022-09-09T19:01:36.072Z,99482.75
2022-09-09T19:04:23.708Z,99482.78
2022-09-09T19:07:11.408Z,99475.25
2022-09-09T19:09:58.954Z,99466.97
2022-09-09T19:12:45.338Z,99466.53
2022-09-09T19:15:37.517Z,99474.75
2022-09-09T19:18:24.959Z,99477.94
2022-09-09T19:21:22.630Z,99470.72
2022-09-09T19:24:22.395Z,99469.19
2022-09-09T19:27:09.857Z,99474.75
2022-09-09T19:29:57.987Z,99465.94
2022-09-09T19:32:53.907Z,99466.72
2022-09-09T19:35:41.811Z,99465.53
2022-09-09T19:38:29.552Z,99462.66
2022-09-09T19:41:23.290Z,99462.72
2022-09-09T19:44:13.315Z,99464.31
2022-09-09T19:47:00.842Z,99472.69
2022-09-09T19:49:48.203Z,99469.06
2022-09-09T19:52:37.272Z,99476.69
2022-09-09T19:55:28.754Z,99465.06
2022-09-09T19:58:15.017Z,99472.16
2022-09-09T20:01:11.467Z,99468.47
2022-09-09T20:04:01.274Z,99481.47
2022-09-09T20:06:51.412Z,99475.66
2022-09-09T20:09:37.906Z,99491.16
2022-09-09T20:12:24.298Z,99485.03
2022-09-09T20:15:12.879Z,99488.56
2022-09-09T20:18:00.389Z,99492.41
2022-09-09T20:20:47.086Z,99496.25
2022-09-09T20:23:33.789Z,99494.91
2022-09-09T20:26:22.432Z,99493.81
2022-09-09T20:29:15.719Z,99501.38
2022-09-09T20:32:02.807Z,99499.56
2022-09-09T20:34:49.008Z,99504.56
2022-09-09T20:37:35.611Z,99496.66
2022-09-09T20:40:22.359Z,99506.22
2022-09-09T20:43:12.716Z,99491.94
2022-09-09T20:46:02.473Z,99487.66
2022-09-09T20:49:00.773Z,99480.56
2022-09-09T20:51:50.500Z,99473.97
2022-09-09T20:54:38.811Z,99468.41
2022-09-09T20:57:24.855Z,99466.47
2022-09-09T21:00:15.605Z,99471.62
2022-09-09T21:03:02.382Z,99470.59
2022-09-09T21:05:48.803Z,99473.56
2022-09-09T21:08:35.545Z,99465.31
2022-09-09T21:11:22.072Z,99483.44
2022-09-09T21:14:09.001Z,99481.81
2022-09-09T21:16:55.286Z,99489.78
2022-09-09T21:19:41.250Z,99492.69
2022-09-09T21:22:27.614Z,99487.44
2022-09-09T21:25:13.802Z,99487.88
2022-09-09T21:28:00.383Z,99481.25
2022-09-09T21:30:50.940Z,99481.38
2022-09-09T21:33:37.474Z,99475.19
2022-09-09T21:36:23.441Z,99473.84
2022-09-09T21:39:10.258Z,99473.47
2022-09-09T21:41:56.910Z,99467.94
2022-09-09T21:44:42.944Z,99464.19
2022-09-09T21:47:28.719Z,99471.28
2022-09-09T21:50:17.161Z,99474.81
2022-09-09T21:53:03.554Z,99466.75
2022-09-09T21:55:49.847Z,99469.72
2022-09-09T21:58:35.953Z,99464.84
2022-09-09T22:01:24.932Z,99470.38
2022-09-09T22:04:11.670Z,99472.38
2022-09-09T22:06:57.680Z,99475.91
2022-09-09T22:09:44.215Z,99476.28
2022-09-09T22:12:31.005Z,99480.56
2022-09-09T22:15:17.225Z,99466.81
2022-09-09T22:18:04.043Z,99473.75
2022-09-09T22:20:50.407Z,99464.03
2022-09-09T22:23:36.883Z,99462.56
2022-09-09T22:26:24.451Z,99462.03
2022-09-09T22:29:11.232Z,99463.22
2022-09-09T22:31:57.852Z,99462.59
2022-09-09T22:34:43.925Z,99468.34
2022-09-09T22:37:30.269Z,99470.97
2022-09-09T22:40:16.592Z,99469.63
2022-09-09T22:43:02.971Z,99466.38
2022-09-09T22:45:50.153Z,99457.16
2022-09-09T22:48:38.040Z,99449.53
2022-09-09T22:51:24.265Z,99454.69
2022-09-09T22:54:11.089Z,99452.53
2022-09-09T22:56:57.262Z,99457.88
2022-09-09T22:59:43.596Z,99460.84
2022-09-09T23:02:29.719Z,99450.88
2022-09-09T23:05:16.920Z,99456.25
2022-09-09T23:08:03.102Z,99457.12
2022-09-09T23:10:49.899Z,99454.84
2022-09-09T23:13:41.499Z,99457.53
2022-09-09T23:16:32.575Z,99454.75
2022-09-09T23:19:19.259Z,99455.88
2022-09-09T23:22:06.873Z,99455.91
2022-09-09T23:24:54.073Z,99458.03
2022-09-09T23:27:40.231Z,99450.88
2022-09-09T23:30:26.663Z,99443.75
2022-09-09T23:33:13.040Z,99445.41
2022-09-09T23:36:05.032Z,99447.03
2022-09-09T23:38:51.537Z,99454.75
2022-09-09T23:41:38.132Z,99457.84
2022-09-09T23:44:24.475Z,99446.03
2022-09-09T23:47:10.363Z,99442.53
2022-09-09T23:49:56.724Z,99450.16
2022-09-09T23:52:44.141Z,99460.13
2022-09-09T23:55:30.756Z,99462.94
2022-09-09T23:58:16.638Z,99465.19
